Terminal Aerodrome Forecast
Issued by NWS Cleveland, OH

Home | Current Version | Previous Version | Text Only | Print | Product List | Glossary On
Versions: 1 2 3 4 5 6 7 8 9 10 11 12 13 14 15 16 17 18 19 20 21 22 23 24 25 26 27
057
FTUS41 KCLE 280905 AAC
TAFCLE
TAF AMD
KCLE 280905Z 2809/2912 VRB04KT P6SM SCT015 BKN200
      TEMPO 2809/2811 BKN015
     FM281400 04010KT P6SM SCT015 BKN070
      TEMPO 2814/2817 BKN015
     FM281700 03012G22KT P6SM SCT015 BKN040
     FM290100 04015G25KT P6SM FEW015 SCT060
     FM290900 05010KT P6SM FEW035 SCT200=

USA.gov is the U.S. government's official web portal to all federal, state and local government web resources and services.